Time;durP1;ratioP1;P1;durP2;ratioP2;P2;SDS_P1;SDS_P2;PMS_P1;PMS_P2;Temp;Humidity;BMP_temperature;BMP_pressure;BME280_temperature;BME280_humidity;BME280_pressure;Samples;Min_cycle;Max_cycle;Signal;HPM_P1;HPM_P2
2022/03/01 00:02:15;;;;;;;12.88;8.57;;;3.40;99.90;;;;;;5110031;28;20032;-73
2022/03/01 00:04:41;;;;;;;18.05;10.05;;;3.40;99.90;;;;;;5110114;28;20039;-73
2022/03/01 00:07:07;;;;;;;15.18;10.27;;;3.40;99.90;;;;;;5093554;28;20046;-73
2022/03/01 00:09:34;;;;;;;15.07;9.00;;;4.20;99.90;;;;;;5094402;28;20039;-73
2022/03/01 00:12:00;;;;;;;13.43;8.00;;;3.30;99.90;;;;;;5112170;27;20514;-73
2022/03/01 00:14:25;;;;;;;17.35;10.35;;;3.30;99.90;;;;;;5101581;28;20044;-72
2022/03/01 00:16:51;;;;;;;15.18;9.15;;;3.40;99.90;;;;;;5113937;27;20043;-72
2022/03/01 00:19:17;;;;;;;15.75;9.15;;;3.20;99.90;;;;;;5109411;28;20078;-73
2022/03/01 00:21:43;;;;;;;17.17;8.02;;;3.20;99.90;;;;;;5117454;27;20143;-72
2022/03/01 00:24:08;;;;;;;15.43;9.25;;;3.20;99.90;;;;;;5093566;28;20043;-73
2022/03/01 00:26:34;;;;;;;14.32;9.50;;;3.20;99.90;;;;;;5095166;28;20054;-72
2022/03/01 00:29:00;;;;;;;16.27;8.82;;;4.20;99.90;;;;;;5099082;28;20039;-72
2022/03/01 00:31:26;;;;;;;14.70;9.18;;;3.20;99.90;;;;;;5099096;27;20087;-72
2022/03/01 00:33:51;;;;;;;15.23;8.88;;;3.30;99.90;;;;;;5110788;27;20043;-72
2022/03/01 00:36:17;;;;;;;13.48;8.30;;;4.10;99.90;;;;;;5095856;27;20027;-73
2022/03/01 00:38:43;;;;;;;14.65;9.35;;;3.10;99.90;;;;;;5109492;28;20126;-73
2022/03/01 00:41:08;;;;;;;16.17;10.05;;;3.10;99.90;;;;;;5092512;28;20074;-73
2022/03/01 00:43:34;;;;;;;17.65;9.73;;;3.10;99.90;;;;;;5092932;28;20043;-74
2022/03/01 00:46:00;;;;;;;14.55;8.07;;;3.00;99.90;;;;;;5109208;28;20048;-74
2022/03/01 00:48:26;;;;;;;14.93;8.50;;;3.20;99.90;;;;;;5092500;28;20049;-74
2022/03/01 00:50:51;;;;;;;17.52;10.35;;;3.00;99.90;;;;;;5092669;28;20047;-74
2022/03/01 00:53:17;;;;;;;17.05;9.30;;;3.00;99.90;;;;;;5092395;28;20043;-74
2022/03/01 00:55:43;;;;;;;17.50;9.85;;;3.40;99.90;;;;;;5092099;28;20059;-74
2022/03/01 00:58:08;;;;;;;15.75;9.27;;;2.90;99.90;;;;;;5092083;28;20396;-74
2022/03/01 01:00:35;;;;;;;15.63;9.52;;;2.90;99.90;;;;;;5076299;28;20476;-73
2022/03/01 01:03:01;;;;;;;15.88;10.30;;;2.90;99.90;;;;;;5110249;28;20140;-73
2022/03/01 01:05:27;;;;;;;15.80;10.00;;;2.90;99.90;;;;;;5109001;28;20096;-73
2022/03/01 01:07:54;;;;;;;15.70;9.40;;;2.90;99.90;;;;;;5093002;28;20388;-73
2022/03/01 01:10:20;;;;;;;15.38;9.18;;;2.90;99.90;;;;;;5092169;28;20095;-73
2022/03/01 01:12:46;;;;;;;14.35;9.02;;;2.90;99.90;;;;;;5110293;28;20070;-73
2022/03/01 01:15:15;;;;;;;16.25;10.70;;;3.00;99.90;;;;;;5119752;27;20128;-72
2022/03/01 01:17:41;;;;;;;16.02;9.95;;;3.10;99.90;;;;;;5109076;28;20054;-71
2022/03/01 01:20:08;;;;;;;15.82;10.85;;;2.70;99.90;;;;;;5101326;27;20042;-72
2022/03/01 01:22:40;;;;;;;16.38;10.55;;;2.70;99.90;;;;;;5090947;27;20067;-73
2022/03/01 01:25:14;;;;;;;15.05;9.38;;;2.70;99.90;;;;;;5096470;28;20372;-73
2022/03/01 01:27:42;;;;;;;14.73;8.95;;;2.70;99.90;;;;;;5111463;27;20086;-73
2022/03/01 01:30:14;;;;;;;14.63;9.52;;;3.50;99.90;;;;;;5117487;27;20348;-73
2022/03/01 01:32:40;;;;;;;15.30;9.52;;;2.70;99.90;;;;;;5112119;27;20077;-73
2022/03/01 01:35:07;;;;;;;16.40;9.60;;;2.70;99.90;;;;;;5088915;28;20118;-73
2022/03/01 01:37:33;;;;;;;15.65;9.45;;;2.70;99.90;;;;;;5086673;28;20046;-73
2022/03/01 01:39:59;;;;;;;15.27;9.55;;;3.80;99.90;;;;;;5087989;27;20031;-73
2022/03/01 01:42:25;;;;;;;15.50;10.60;;;2.70;99.90;;;;;;5096106;28;20067;-73
2022/03/01 01:44:51;;;;;;;16.77;10.30;;;2.60;99.90;;;;;;5092732;28;20490;-73
2022/03/01 01:47:16;;;;;;;14.10;8.90;;;2.70;99.90;;;;;;5091928;28;20041;-72
2022/03/01 01:49:42;;;;;;;15.52;10.27;;;2.70;99.90;;;;;;5112688;27;20682;-74
2022/03/01 01:52:08;;;;;;;16.20;11.32;;;2.70;99.90;;;;;;5117730;27;20080;-73
2022/03/01 01:54:34;;;;;;;15.15;9.27;;;2.60;99.90;;;;;;5095033;28;20039;-73
2022/03/01 01:56:59;;;;;;;18.90;10.85;;;2.60;99.90;;;;;;5118105;27;20116;-73
2022/03/01 01:59:25;;;;;;;17.60;11.35;;;2.60;99.90;;;;;;5126762;27;20458;-73
2022/03/01 02:01:51;;;;;;;15.60;10.02;;;2.60;99.90;;;;;;5113507;28;20067;-73
2022/03/01 02:04:17;;;;;;;15.40;9.73;;;3.20;99.90;;;;;;5098188;28;20041;-73
2022/03/01 02:06:54;;;;;;;15.65;9.73;;;3.40;99.90;;;;;;5114198;27;20388;-73
2022/03/01 02:09:20;;;;;;;13.52;9.23;;;2.80;99.90;;;;;;5119894;27;20048;-73
2022/03/01 02:11:46;;;;;;;15.15;10.20;;;3.10;99.90;;;;;;5118000;27;20039;-73
2022/03/01 02:14:12;;;;;;;17.08;10.63;;;2.60;99.90;;;;;;5111600;27;20044;-73
2022/03/01 02:16:39;;;;;;;15.65;10.15;;;2.50;99.90;;;;;;5109885;28;20097;-73
2022/03/01 02:19:05;;;;;;;15.98;11.00;;;2.50;99.90;;;;;;5112613;28;20031;-73
2022/03/01 02:21:31;;;;;;;17.73;10.75;;;2.50;99.90;;;;;;5095349;27;20043;-73
2022/03/01 02:23:57;;;;;;;15.82;10.43;;;2.50;99.90;;;;;;5094335;28;20385;-74
2022/03/01 02:26:23;;;;;;;15.00;10.30;;;2.60;99.90;;;;;;5112781;27;20051;-74
2022/03/01 02:28:48;;;;;;;18.15;10.18;;;2.60;99.90;;;;;;5111832;28;20039;-74
2022/03/01 02:31:14;;;;;;;15.48;10.25;;;3.80;99.90;;;;;;5113908;27;20137;-73
2022/03/01 02:33:40;;;;;;;19.80;11.98;;;2.70;99.90;;;;;;5105016;28;20044;-72
2022/03/01 02:36:06;;;;;;;13.60;9.23;;;2.60;99.90;;;;;;5096814;28;20078;-73
2022/03/01 02:38:31;;;;;;;17.08;10.60;;;2.50;99.90;;;;;;5096477;28;20039;-72
2022/03/01 02:40:57;;;;;;;16.58;10.85;;;2.40;99.90;;;;;;5112272;28;20122;-73
2022/03/01 02:43:23;;;;;;;15.50;9.75;;;2.50;99.90;;;;;;5117031;27;20043;-73
2022/03/01 02:45:48;;;;;;;15.77;11.23;;;2.70;99.90;;;;;;5112567;28;20043;-73
2022/03/01 02:48:14;;;;;;;15.23;9.95;;;2.50;99.90;;;;;;5116423;27;20039;-73
2022/03/01 02:50:40;;;;;;;16.35;10.63;;;2.50;99.90;;;;;;5111540;28;20433;-73
2022/03/01 02:53:07;;;;;;;15.60;9.73;;;2.60;99.90;;;;;;5094306;28;20073;-73
2022/03/01 02:55:33;;;;;;;14.98;9.82;;;3.50;99.90;;;;;;5091884;28;20131;-73
2022/03/01 02:57:58;;;;;;;17.58;10.77;;;3.70;99.90;;;;;;5094724;28;20114;-72
2022/03/01 03:00:24;;;;;;;16.85;11.07;;;2.50;99.90;;;;;;5098229;28;20567;-73
2022/03/01 03:02:50;;;;;;;18.25;11.38;;;2.50;99.90;;;;;;5077448;28;20038;-73
2022/03/01 03:05:15;;;;;;;18.25;10.95;;;2.50;99.90;;;;;;5090484;28;20035;-73
2022/03/01 03:07:42;;;;;;;18.63;11.30;;;2.40;99.90;;;;;;5096968;27;20092;-74
2022/03/01 03:10:08;;;;;;;20.52;11.77;;;2.60;99.90;;;;;;5101423;28;20118;-72
2022/03/01 03:12:34;;;;;;;17.85;11.00;;;2.50;99.90;;;;;;5094545;28;20154;-73
2022/03/01 03:15:00;;;;;;;18.98;11.50;;;2.60;99.90;;;;;;5094801;28;20059;-73
2022/03/01 03:17:26;;;;;;;16.27;10.05;;;2.60;99.90;;;;;;5112247;27;20031;-73
2022/03/01 03:19:51;;;;;;;14.02;9.50;;;2.60;99.90;;;;;;5112420;27;20076;-73
2022/03/01 03:22:17;;;;;;;16.83;10.60;;;2.50;99.90;;;;;;5115743;27;20039;-74
2022/03/01 03:24:43;;;;;;;18.13;11.52;;;3.60;99.90;;;;;;5121354;27;20036;-73
2022/03/01 03:27:09;;;;;;;19.13;10.40;;;2.40;99.90;;;;;;5074693;28;20047;-73
2022/03/01 03:29:34;;;;;;;18.90;11.93;;;2.50;99.90;;;;;;5107174;27;20043;-74
2022/03/01 03:32:00;;;;;;;18.02;11.18;;;2.50;99.90;;;;;;5113223;27;20047;-74
2022/03/01 03:34:26;;;;;;;17.75;10.75;;;2.90;99.90;;;;;;5094282;28;20130;-74
2022/03/01 03:36:52;;;;;;;18.70;11.45;;;2.60;99.90;;;;;;5061532;28;20039;-74
2022/03/01 03:39:19;;;;;;;17.27;11.20;;;2.50;99.90;;;;;;5128996;27;20042;-74
2022/03/01 03:41:44;;;;;;;18.25;11.00;;;2.60;99.90;;;;;;5112743;27;20035;-73
2022/03/01 03:44:10;;;;;;;19.38;12.05;;;2.70;99.90;;;;;;5112146;28;20047;-73
2022/03/01 03:46:36;;;;;;;14.93;9.82;;;3.30;99.90;;;;;;5119088;27;20054;-73
2022/03/01 03:49:03;;;;;;;21.17;11.05;;;2.70;99.90;;;;;;5091918;28;20044;-73
2022/03/01 03:51:29;;;;;;;16.58;9.77;;;2.80;99.90;;;;;;5112266;27;20044;-71
2022/03/01 03:53:55;;;;;;;17.33;11.30;;;2.70;99.90;;;;;;5114353;28;20047;-72
2022/03/01 03:56:21;;;;;;;19.58;10.73;;;2.80;99.90;;;;;;5097406;28;20146;-72
2022/03/01 03:58:47;;;;;;;17.08;11.13;;;2.70;99.90;;;;;;5111140;28;20184;-72
2022/03/01 04:01:12;;;;;;;16.25;10.00;;;3.20;99.90;;;;;;5124486;27;20040;-73
2022/03/01 04:03:38;;;;;;;16.45;10.50;;;2.70;99.90;;;;;;5100414;28;20081;-73
2022/03/01 04:06:04;;;;;;;20.15;10.68;;;2.70;99.90;;;;;;5111223;28;20468;-73
2022/03/01 04:08:30;;;;;;;17.88;11.07;;;2.80;99.90;;;;;;5098349;27;20043;-73
2022/03/01 04:10:56;;;;;;;18.15;10.85;;;3.10;99.90;;;;;;5094329;28;20039;-73
2022/03/01 04:13:24;;;;;;;16.85;10.90;;;2.80;99.90;;;;;;5093127;28;20058;-72
2022/03/01 04:15:50;;;;;;;18.40;11.93;;;2.70;99.90;;;;;;5114141;27;20055;-73
2022/03/01 04:18:16;;;;;;;18.02;10.80;;;2.70;99.90;;;;;;5109813;28;20046;-73
2022/03/01 04:20:43;;;;;;;17.42;11.25;;;3.20;99.90;;;;;;5118670;27;20032;-73
2022/03/01 04:23:09;;;;;;;17.25;10.90;;;2.80;99.90;;;;;;5078023;28;20036;-73
2022/03/01 04:25:35;;;;;;;17.30;10.48;;;2.70;99.90;;;;;;5101775;28;20050;-75
2022/03/01 04:28:01;;;;;;;21.17;11.88;;;2.60;99.90;;;;;;5094346;28;20116;-72
2022/03/01 04:30:27;;;;;;;18.60;11.73;;;2.60;99.90;;;;;;5111203;27;20035;-72
2022/03/01 04:32:53;;;;;;;17.45;11.15;;;2.60;99.90;;;;;;5076599;28;20153;-72
2022/03/01 04:35:19;;;;;;;18.80;11.65;;;3.70;99.90;;;;;;5093321;28;20231;-72
2022/03/01 04:37:45;;;;;;;18.38;11.73;;;2.80;99.90;;;;;;5093758;28;20063;-72
2022/03/01 04:40:13;;;;;;;16.20;10.30;;;3.10;99.90;;;;;;5094026;28;20059;-73
2022/03/01 04:42:39;;;;;;;17.85;11.13;;;2.70;99.90;;;;;;5100409;28;20090;-73
2022/03/01 04:45:05;;;;;;;17.30;11.10;;;2.70;99.90;;;;;;5092781;28;20080;-72
2022/03/01 04:47:31;;;;;;;17.85;11.15;;;2.70;99.90;;;;;;5108673;28;20101;-73
2022/03/01 04:49:58;;;;;;;19.83;12.05;;;2.60;99.90;;;;;;5107650;27;20055;-72
2022/03/01 04:52:24;;;;;;;19.23;12.05;;;3.60;99.90;;;;;;5079403;28;20040;-73
2022/03/01 04:54:50;;;;;;;19.55;12.18;;;2.70;99.90;;;;;;5093900;28;20133;-73
2022/03/01 04:57:16;;;;;;;19.92;11.98;;;2.70;99.90;;;;;;5121237;27;20043;-73
2022/03/01 04:59:42;;;;;;;19.27;11.38;;;2.60;99.90;;;;;;5097053;28;20040;-72
2022/03/01 05:02:08;;;;;;;16.83;11.27;;;2.60;99.90;;;;;;5088791;27;20118;-72
2022/03/01 05:04:34;;;;;;;18.83;11.70;;;3.40;99.90;;;;;;5094374;27;20055;-72
2022/03/01 05:06:59;;;;;;;17.92;11.23;;;2.60;99.90;;;;;;5113979;27;20039;-73
2022/03/01 05:09:25;;;;;;;19.42;11.77;;;3.30;99.90;;;;;;5099379;27;20039;-72
2022/03/01 05:11:52;;;;;;;19.50;11.60;;;2.70;99.90;;;;;;5097597;28;20040;-73
2022/03/01 05:14:19;;;;;;;17.80;11.18;;;2.70;99.90;;;;;;5119060;27;20107;-72
2022/03/01 05:16:46;;;;;;;19.30;10.75;;;2.60;99.90;;;;;;5092467;28;20035;-73
2022/03/01 05:19:12;;;;;;;20.42;11.98;;;2.60;99.90;;;;;;5092969;28;20816;-73
2022/03/01 05:21:38;;;;;;;19.45;11.32;;;2.60;99.90;;;;;;5092514;28;20050;-73
2022/03/01 05:24:05;;;;;;;19.42;12.45;;;3.00;99.90;;;;;;5109313;28;20428;-73
2022/03/01 05:26:31;;;;;;;17.30;11.38;;;2.70;99.90;;;;;;5109274;28;20126;-73
2022/03/01 05:28:57;;;;;;;17.17;10.68;;;2.60;99.90;;;;;;5093372;28;20192;-73
2022/03/01 05:31:23;;;;;;;16.98;11.73;;;2.80;99.90;;;;;;5110124;28;20051;-73
2022/03/01 05:33:49;;;;;;;20.13;12.15;;;2.90;99.90;;;;;;5109936;28;20043;-74
2022/03/01 05:36:15;;;;;;;18.83;12.55;;;2.90;99.90;;;;;;5109717;28;20120;-72
2022/03/01 05:38:42;;;;;;;21.75;12.30;;;2.80;99.90;;;;;;5109506;28;20447;-72
2022/03/01 05:41:08;;;;;;;17.88;11.70;;;2.80;99.90;;;;;;5109551;28;20395;-73
2022/03/01 05:43:35;;;;;;;18.58;12.60;;;2.90;99.90;;;;;;5109360;28;20051;-72
2022/03/01 05:46:01;;;;;;;16.88;9.80;;;2.80;99.90;;;;;;5108547;28;20039;-73
2022/03/01 05:48:26;;;;;;;17.45;11.68;;;2.70;99.90;;;;;;5108753;28;20126;-74
2022/03/01 05:50:54;;;;;;;19.40;12.20;;;2.90;99.90;;;;;;5091599;28;20043;-73
2022/03/01 05:53:19;;;;;;;16.63;11.05;;;3.40;99.90;;;;;;5092288;28;20070;-73
2022/03/01 05:55:45;;;;;;;20.88;12.45;;;2.80;99.90;;;;;;5109131;28;20399;-73
2022/03/01 05:58:11;;;;;;;18.73;11.70;;;2.80;99.90;;;;;;5092508;28;20146;-73
2022/03/01 06:00:37;;;;;;;17.55;11.40;;;2.80;99.90;;;;;;5091264;28;20145;-73
2022/03/01 06:03:03;;;;;;;20.15;12.13;;;3.10;99.90;;;;;;5109348;28;20116;-74
2022/03/01 06:05:30;;;;;;;21.25;12.07;;;2.80;99.90;;;;;;5125638;28;20062;-76
2022/03/01 06:07:56;;;;;;;19.63;12.20;;;2.70;99.90;;;;;;5091754;28;20035;-73
2022/03/01 06:10:22;;;;;;;18.55;12.20;;;2.70;99.90;;;;;;5095301;28;20039;-73
2022/03/01 06:12:48;;;;;;;19.23;12.43;;;2.70;99.90;;;;;;5091019;28;20483;-73
2022/03/01 06:15:14;;;;;;;18.42;11.07;;;2.90;99.90;;;;;;5108399;28;20123;-73
2022/03/01 06:17:40;;;;;;;18.67;11.52;;;3.10;99.90;;;;;;5106930;28;20126;-73
2022/03/01 06:20:08;;;;;;;18.27;11.55;;;2.80;99.90;;;;;;5108885;28;20042;-73
2022/03/01 06:22:34;;;;;;;18.27;11.23;;;2.80;99.90;;;;;;5106953;28;20046;-74
2022/03/01 06:25:00;;;;;;;18.70;11.75;;;2.90;99.90;;;;;;5107738;28;20035;-74
2022/03/01 06:27:26;;;;;;;16.42;10.85;;;3.00;99.90;;;;;;5090382;28;20047;-73
2022/03/01 06:29:52;;;;;;;18.30;10.90;;;2.70;99.90;;;;;;5099517;28;20047;-73
2022/03/01 06:32:17;;;;;;;21.45;11.90;;;2.70;99.90;;;;;;5091764;28;20061;-72
2022/03/01 06:34:43;;;;;;;20.20;11.73;;;2.90;99.90;;;;;;5114789;27;20055;-73
2022/03/01 06:37:13;;;;;;;17.15;11.15;;;2.80;99.90;;;;;;5110677;27;20118;-73
2022/03/01 06:39:44;;;;;;;19.20;12.70;;;2.80;99.90;;;;;;5090578;28;20119;-73
2022/03/01 06:42:11;;;;;;;19.00;12.32;;;2.80;99.90;;;;;;5095785;27;20045;-73
2022/03/01 06:44:38;;;;;;;19.48;11.85;;;2.80;99.90;;;;;;5116075;27;20042;-73
2022/03/01 06:47:04;;;;;;;19.73;11.73;;;3.20;99.90;;;;;;5089841;28;20043;-74
2022/03/01 06:49:30;;;;;;;19.15;12.07;;;2.80;99.90;;;;;;5111147;27;20043;-72
2022/03/01 06:51:56;;;;;;;20.58;12.65;;;3.40;99.90;;;;;;5112301;27;20043;-74
2022/03/01 06:54:22;;;;;;;19.65;13.05;;;2.90;99.90;;;;;;5130915;27;20039;-73
2022/03/01 06:56:48;;;;;;;19.23;11.95;;;3.10;99.90;;;;;;5113386;27;20139;-73
2022/03/01 06:59:14;;;;;;;18.67;11.35;;;2.90;99.90;;;;;;5110376;27;20126;-73
2022/03/01 07:01:40;;;;;;;17.50;11.90;;;2.90;99.90;;;;;;5077228;28;20110;-73
2022/03/01 07:04:06;;;;;;;18.77;12.32;;;3.00;99.90;;;;;;5106607;27;20146;-73
2022/03/01 07:06:32;;;;;;;19.27;12.25;;;3.00;99.90;;;;;;5084258;28;20047;-72
2022/03/01 07:08:57;;;;;;;19.25;12.00;;;2.90;99.90;;;;;;5114553;27;20053;-72
2022/03/01 07:11:23;;;;;;;20.45;11.95;;;3.00;99.90;;;;;;5102162;28;20481;-72
2022/03/01 07:13:49;;;;;;;17.55;10.55;;;3.00;99.90;;;;;;5086201;28;20051;-73
2022/03/01 07:16:15;;;;;;;19.15;12.02;;;3.00;99.90;;;;;;5088364;28;20036;-73
2022/03/01 07:18:44;;;;;;;19.98;12.23;;;3.10;99.90;;;;;;5082868;28;20108;-72
2022/03/01 07:21:10;;;;;;;19.90;13.13;;;3.00;99.90;;;;;;5124067;27;20071;-73
2022/03/01 07:23:36;;;;;;;18.52;11.48;;;3.10;99.90;;;;;;5087499;28;20657;-72
2022/03/01 07:26:04;;;;;;;19.95;13.27;;;3.10;99.90;;;;;;5089450;28;20479;-72
2022/03/01 07:28:30;;;;;;;18.25;11.55;;;3.20;99.90;;;;;;5079396;28;20476;-72
2022/03/01 07:30:57;;;;;;;22.55;12.77;;;3.20;99.90;;;;;;5106227;28;20043;-69
2022/03/01 07:33:23;;;;;;;22.98;13.90;;;4.20;99.90;;;;;;5097978;28;20048;-72
2022/03/01 07:35:49;;;;;;;20.52;12.88;;;3.30;99.90;;;;;;5120377;27;20055;-72
2022/03/01 07:38:15;;;;;;;16.73;10.95;;;3.40;99.90;;;;;;5100879;27;20499;-71
2022/03/01 07:40:41;;;;;;;18.52;12.25;;;3.40;99.90;;;;;;5108048;28;20032;-72
2022/03/01 07:43:07;;;;;;;21.90;13.30;;;3.50;99.90;;;;;;5061848;27;20042;-71
2022/03/01 07:45:34;;;;;;;21.02;12.85;;;3.50;99.90;;;;;;5095522;28;20036;-71
2022/03/01 07:48:01;;;;;;;17.60;10.02;;;4.40;99.90;;;;;;5070321;28;20142;-71
2022/03/01 07:50:28;;;;;;;21.15;13.38;;;4.80;99.90;;;;;;5106445;27;20035;-72
2022/03/01 07:52:54;;;;;;;19.25;12.82;;;3.50;99.90;;;;;;5101231;27;20043;-72
2022/03/01 07:55:21;;;;;;;20.08;9.70;;;3.90;99.90;;;;;;5092588;27;20177;-71
2022/03/01 07:57:47;;;;;;;18.10;11.98;;;3.60;99.90;;;;;;5089957;28;20713;-72
2022/03/01 08:00:13;;;;;;;21.85;13.40;;;3.60;99.90;;;;;;5074345;28;20518;-71
2022/03/01 08:02:40;;;;;;;19.52;12.43;;;3.60;99.90;;;;;;5088432;28;20044;-71
2022/03/01 08:05:07;;;;;;;19.10;12.55;;;3.80;99.90;;;;;;5092010;28;20119;-71
2022/03/01 08:07:33;;;;;;;18.55;12.85;;;3.60;99.90;;;;;;5089203;28;20040;-72
2022/03/01 08:10:00;;;;;;;17.98;11.98;;;3.80;99.90;;;;;;5091394;28;20047;-70
2022/03/01 08:12:25;;;;;;;21.45;13.65;;;3.80;99.90;;;;;;5080629;28;20035;-72
2022/03/01 08:14:51;;;;;;;23.52;13.35;;;4.70;99.90;;;;;;5124016;27;20491;-72
2022/03/01 08:17:17;;;;;;;20.40;12.98;;;3.80;99.90;;;;;;5092182;28;20031;-72
2022/03/01 08:19:43;;;;;;;20.67;13.15;;;4.80;99.90;;;;;;5103192;28;21664;-72
2022/03/01 08:22:09;;;;;;;17.75;12.23;;;3.90;99.90;;;;;;5101889;28;20135;-71
2022/03/01 08:24:35;;;;;;;19.75;13.50;;;4.00;99.90;;;;;;5084459;28;20491;-72
2022/03/01 08:27:01;;;;;;;21.27;12.60;;;4.00;99.90;;;;;;5107002;28;20043;-71
2022/03/01 08:29:29;;;;;;;18.75;11.80;;;4.00;99.90;;;;;;5108567;27;20096;-69
2022/03/01 08:31:55;;;;;;;18.88;12.48;;;4.10;99.90;;;;;;5107615;28;20097;-70
2022/03/01 08:34:21;;;;;;;17.05;10.85;;;4.10;99.90;;;;;;5091932;28;20044;-70
2022/03/01 08:36:47;;;;;;;19.90;12.07;;;4.20;99.90;;;;;;5099259;28;20074;-71
2022/03/01 08:39:13;;;;;;;20.88;12.25;;;4.20;99.90;;;;;;5079686;28;20066;-70
2022/03/01 08:41:39;;;;;;;18.73;12.05;;;4.30;99.90;;;;;;5065149;28;20040;-70
2022/03/01 08:44:05;;;;;;;20.80;12.55;;;4.30;99.90;;;;;;5104359;27;20039;-70
2022/03/01 08:46:31;;;;;;;18.83;11.25;;;4.40;99.90;;;;;;5067518;28;20082;-70
2022/03/01 08:48:57;;;;;;;22.85;12.25;;;4.50;99.90;;;;;;5102386;28;20146;-69
2022/03/01 08:51:25;;;;;;;21.55;12.48;;;4.60;99.90;;;;;;5084675;28;20047;-70
2022/03/01 08:53:52;;;;;;;18.05;12.40;;;4.60;99.90;;;;;;5081840;28;20162;-69
2022/03/01 08:56:19;;;;;;;18.85;12.10;;;4.90;99.90;;;;;;5084730;28;20064;-69
2022/03/01 08:58:45;;;;;;;19.33;12.25;;;4.80;99.90;;;;;;5083849;28;20044;-69
2022/03/01 09:01:12;;;;;;;19.45;12.73;;;4.90;99.90;;;;;;5083508;28;20047;-70
2022/03/01 09:03:38;;;;;;;19.45;11.00;;;5.00;99.90;;;;;;5081894;28;20043;-70
2022/03/01 09:06:05;;;;;;;17.75;11.55;;;5.20;99.90;;;;;;5065963;28;20052;-70
2022/03/01 09:08:37;;;;;;;16.30;11.52;;;5.30;99.90;;;;;;5078155;28;20061;-70
2022/03/01 09:11:03;;;;;;;18.52;11.90;;;5.30;99.90;;;;;;5085202;28;20043;-71
2022/03/01 09:13:29;;;;;;;19.10;11.52;;;5.40;99.90;;;;;;5100790;28;20054;-71
2022/03/01 09:15:55;;;;;;;16.40;11.43;;;5.50;99.90;;;;;;5101913;28;20040;-70
2022/03/01 09:18:21;;;;;;;16.23;10.93;;;5.70;99.90;;;;;;5082205;28;20100;-71
2022/03/01 09:20:47;;;;;;;19.75;11.55;;;5.90;99.90;;;;;;5101282;28;20745;-70
2022/03/01 09:23:13;;;;;;;16.05;10.43;;;6.00;99.90;;;;;;5100297;28;20048;-69
2022/03/01 09:25:39;;;;;;;19.25;11.93;;;6.00;99.90;;;;;;5084068;28;20134;-71
2022/03/01 09:28:05;;;;;;;17.17;10.20;;;6.10;99.90;;;;;;5099686;28;20119;-69
2022/03/01 09:30:31;;;;;;;16.25;11.60;;;6.00;99.90;;;;;;5082217;28;20050;-70
2022/03/01 09:32:57;;;;;;;18.60;11.23;;;6.20;99.90;;;;;;5082668;28;20079;-69
2022/03/01 09:35:22;;;;;;;16.60;11.35;;;6.30;99.90;;;;;;5069989;28;20040;-70
2022/03/01 09:37:48;;;;;;;16.33;8.80;;;6.40;99.90;;;;;;5078905;28;20044;-70
2022/03/01 09:40:14;;;;;;;16.48;10.02;;;6.40;99.90;;;;;;5076734;28;20041;-70
2022/03/01 09:42:41;;;;;;;18.55;11.00;;;6.40;99.90;;;;;;5062859;28;20039;-72
2022/03/01 09:45:12;;;;;;;15.45;10.38;;;6.30;99.90;;;;;;5080540;28;20044;-70
2022/03/01 09:47:38;;;;;;;19.70;11.15;;;6.40;99.90;;;;;;5079124;28;20051;-70
2022/03/01 09:50:06;;;;;;;19.08;12.35;;;6.40;99.90;;;;;;5098696;28;20395;-70
2022/03/01 09:52:32;;;;;;;16.27;10.48;;;6.40;99.90;;;;;;5081026;28;20054;-70
2022/03/01 09:54:58;;;;;;;16.95;11.20;;;6.30;99.90;;;;;;5047634;28;20044;-69
2022/03/01 09:57:24;;;;;;;16.10;10.77;;;6.40;99.90;;;;;;5080323;28;20598;-70
2022/03/01 09:59:50;;;;;;;15.30;9.10;;;6.30;99.90;;;;;;5081542;28;20513;-70
2022/03/01 10:02:16;;;;;;;16.10;10.13;;;6.30;99.90;;;;;;5089563;28;20035;-70
2022/03/01 10:04:52;;;;;;;16.02;10.75;;;6.30;99.90;;;;;;5101783;28;20040;-71
2022/03/01 10:07:26;;;;;;;18.23;10.98;;;6.30;99.90;;;;;;5095885;28;20456;-71
2022/03/01 10:09:53;;;;;;;17.88;10.32;;;6.30;99.90;;;;;;5099719;28;20073;-70
2022/03/01 10:12:26;;;;;;;14.95;10.95;;;6.40;99.90;;;;;;5101263;28;20131;-71
2022/03/01 10:14:59;;;;;;;15.65;10.38;;;6.60;99.90;;;;;;5084647;28;20488;-71
2022/03/01 10:17:36;;;;;;;15.60;10.85;;;6.60;99.90;;;;;;5086396;28;20931;-70
2022/03/01 10:20:14;;;;;;;16.98;11.10;;;6.70;99.90;;;;;;5084949;28;20057;-70
2022/03/01 10:22:48;;;;;;;15.43;10.40;;;6.70;99.90;;;;;;5086540;28;20044;-72
2022/03/01 10:25:16;;;;;;;17.83;10.73;;;7.30;99.90;;;;;;5090446;28;20044;-70
2022/03/01 10:27:44;;;;;;;17.80;10.77;;;7.00;99.90;;;;;;5084627;28;20044;-70
2022/03/01 10:30:10;;;;;;;15.23;11.10;;;7.10;99.90;;;;;;5097344;28;20499;-71
2022/03/01 10:32:36;;;;;;;20.08;11.13;;;7.20;99.90;;;;;;5105108;28;20138;-72
2022/03/01 10:35:09;;;;;;;15.95;11.00;;;7.50;99.90;;;;;;5085288;28;20575;-71
2022/03/01 10:37:37;;;;;;;16.50;11.40;;;7.80;99.90;;;;;;5084957;28;20044;-71
2022/03/01 10:40:14;;;;;;;14.27;10.43;;;8.00;99.90;;;;;;5100754;28;20043;-71
2022/03/01 10:42:40;;;;;;;17.38;11.05;;;8.20;99.90;;;;;;5087792;28;20515;-71
2022/03/01 10:45:07;;;;;;;15.75;10.57;;;8.10;99.90;;;;;;5087216;28;20059;-71
2022/03/01 10:47:33;;;;;;;16.27;11.02;;;8.10;99.90;;;;;;5106905;28;20108;-70
2022/03/01 10:50:10;;;;;;;17.35;10.60;;;8.10;99.90;;;;;;5091181;28;20112;-72
2022/03/01 10:52:39;;;;;;;15.75;10.27;;;8.30;99.90;;;;;;5089471;28;20040;-71
2022/03/01 10:55:06;;;;;;;16.05;11.48;;;8.30;99.90;;;;;;5087429;28;20048;-73
2022/03/01 10:57:32;;;;;;;17.52;11.02;;;8.30;99.90;;;;;;5087618;28;20059;-73
2022/03/01 10:59:58;;;;;;;15.05;10.05;;;8.40;99.90;;;;;;5103972;28;20910;-72
2022/03/01 11:02:24;;;;;;;17.88;11.25;;;8.80;99.90;;;;;;5073482;28;20047;-72
2022/03/01 11:04:51;;;;;;;15.43;10.80;;;8.80;99.90;;;;;;5069307;28;20177;-72
2022/03/01 11:07:19;;;;;;;14.43;10.88;;;8.70;99.90;;;;;;5084361;28;20047;-72
2022/03/01 11:09:45;;;;;;;16.55;11.73;;;8.80;99.90;;;;;;5088927;28;20131;-72
2022/03/01 11:12:12;;;;;;;16.10;11.13;;;8.40;99.90;;;;;;5104731;28;20759;-72
2022/03/01 11:14:45;;;;;;;17.50;11.35;;;8.60;99.90;;;;;;5086665;28;20081;-72
2022/03/01 11:17:38;;;;;;;14.02;10.52;;;8.60;99.90;;;;;;5102644;27;20047;-72
2022/03/01 11:20:14;;;;;;;20.50;10.60;;;8.70;99.90;;;;;;5086713;28;20054;-72
2022/03/01 11:22:43;;;;;;;16.52;10.43;;;8.80;99.90;;;;;;5086758;28;20046;-72
2022/03/01 11:25:17;;;;;;;17.45;11.30;;;8.70;99.90;;;;;;5086992;28;20391;-72
2022/03/01 11:27:45;;;;;;;16.80;11.43;;;8.50;99.90;;;;;;5104231;28;20047;-72
2022/03/01 11:30:12;;;;;;;15.77;10.65;;;8.50;99.90;;;;;;5104115;28;20048;-73
2022/03/01 11:32:42;;;;;;;16.25;10.73;;;8.60;99.90;;;;;;5103864;28;20257;-72
2022/03/01 11:35:22;;;;;;;15.93;10.88;;;8.60;99.90;;;;;;5104076;28;20047;-73
2022/03/01 11:38:10;;;;;;;15.02;10.88;;;8.60;99.90;;;;;;5090027;28;20482;-73
2022/03/01 11:40:41;;;;;;;15.70;11.23;;;8.70;99.90;;;;;;5091032;28;20052;-72
2022/03/01 11:43:14;;;;;;;16.05;11.02;;;8.70;99.90;;;;;;5096752;28;20043;-72
2022/03/01 11:45:54;;;;;;;18.67;10.75;;;8.80;99.90;;;;;;5105587;28;20107;-71
2022/03/01 11:48:25;;;;;;;14.95;11.13;;;8.80;99.90;;;;;;5091407;28;20127;-72
2022/03/01 11:51:03;;;;;;;18.17;10.77;;;8.70;99.90;;;;;;5083986;28;20088;-72
2022/03/01 11:53:34;;;;;;;14.35;9.93;;;8.80;99.90;;;;;;5082851;28;20032;-72
2022/03/01 11:56:04;;;;;;;14.10;10.63;;;8.80;99.90;;;;;;5083856;28;20059;-72
2022/03/01 11:58:33;;;;;;;15.07;11.20;;;8.90;99.90;;;;;;5084062;28;20385;-71
2022/03/01 12:00:58;;;;;;;15.43;11.45;;;8.80;99.90;;;;;;5083513;28;20066;-71
2022/03/01 12:03:27;;;;;;;15.85;12.10;;;8.90;99.90;;;;;;5085497;28;20036;-72
2022/03/01 12:05:55;;;;;;;16.65;11.18;;;8.80;99.90;;;;;;5082926;28;20539;-72
2022/03/01 12:08:21;;;;;;;15.27;10.85;;;8.80;99.90;;;;;;5087322;28;20051;-72
2022/03/01 12:10:52;;;;;;;17.90;12.02;;;8.70;99.90;;;;;;5086284;28;20040;-72
2022/03/01 12:13:18;;;;;;;15.40;11.23;;;8.60;99.90;;;;;;5102431;28;20051;-71
2022/03/01 12:15:53;;;;;;;13.77;11.30;;;8.50;99.90;;;;;;5102821;28;20100;-72
2022/03/01 12:18:33;;;;;;;15.27;11.13;;;8.50;99.90;;;;;;5102030;28;20035;-72
2022/03/01 12:21:10;;;;;;;18.15;10.98;;;8.40;99.90;;;;;;5103228;28;20047;-72
2022/03/01 12:23:37;;;;;;;14.73;11.40;;;8.30;99.90;;;;;;5067258;28;20852;-72
2022/03/01 12:26:06;;;;;;;16.25;11.13;;;8.30;99.90;;;;;;5098863;27;20048;-72
2022/03/01 12:28:46;;;;;;;14.55;10.73;;;8.30;99.90;;;;;;5081713;28;20048;-72
2022/03/01 12:31:17;;;;;;;15.10;10.60;;;8.30;99.90;;;;;;5094612;28;20073;-72
2022/03/01 12:33:54;;;;;;;16.10;10.60;;;8.30;99.90;;;;;;5102497;28;20054;-72
2022/03/01 12:36:24;;;;;;;14.90;10.38;;;8.20;99.90;;;;;;5099880;28;20424;-72
2022/03/01 12:38:59;;;;;;;13.90;10.13;;;8.30;99.90;;;;;;5095222;28;20044;-73